sensor_id;sensor_type;location;lat;lon;timestamp;pressure;altitude;pressure_sealevel;temperature;humidity
52839;BME280;39219;53.678;9.856;2023-04-16T00:02:01;77457.50;;;-147.77;85.44
52839;BME280;39219;53.678;9.856;2023-04-16T00:04:27;77467.59;;;-147.77;86.43
52839;BME280;39219;53.678;9.856;2023-04-16T00:06:53;77463.56;;;-147.77;86.68
52839;BME280;39219;53.678;9.856;2023-04-16T00:09:20;77467.59;;;-147.77;86.73
52839;BME280;39219;53.678;9.856;2023-04-16T00:11:48;77465.59;;;-147.77;86.96
52839;BME280;39219;53.678;9.856;2023-04-16T00:14:14;77469.63;;;-147.77;87.09
52839;BME280;39219;53.678;9.856;2023-04-16T00:16:41;77467.59;;;-147.77;87.22
52839;BME280;39219;53.678;9.856;2023-04-16T00:19:07;77461.53;;;-147.77;87.26
52839;BME280;39219;53.678;9.856;2023-04-16T00:21:33;77459.50;;;-147.77;86.80
52839;BME280;39219;53.678;9.856;2023-04-16T00:24:00;77453.44;;;-147.77;86.88
52839;BME280;39219;53.678;9.856;2023-04-16T00:26:26;77453.44;;;-147.77;86.44
52839;BME280;39219;53.678;9.856;2023-04-16T00:28:54;77463.56;;;-147.77;86.41
52839;BME280;39219;53.678;9.856;2023-04-16T00:31:26;77465.59;;;-147.77;87.03
52839;BME280;39219;53.678;9.856;2023-04-16T00:33:52;77469.63;;;-147.77;86.69
52839;BME280;39219;53.678;9.856;2023-04-16T00:36:19;77463.56;;;-147.77;87.07
52839;BME280;39219;53.678;9.856;2023-04-16T00:38:45;77463.56;;;-147.77;86.67
52839;BME280;39219;53.678;9.856;2023-04-16T00:41:12;77463.56;;;-147.77;86.73
52839;BME280;39219;53.678;9.856;2023-04-16T00:43:38;77467.59;;;-147.77;86.83
52839;BME280;39219;53.678;9.856;2023-04-16T00:46:06;77461.53;;;-147.77;86.92
52839;BME280;39219;53.678;9.856;2023-04-16T00:48:33;77465.59;;;-147.77;86.50
52839;BME280;39219;53.678;9.856;2023-04-16T00:51:03;77471.66;;;-147.77;86.61
52839;BME280;39219;53.678;9.856;2023-04-16T00:53:30;77475.69;;;-147.77;85.99
52839;BME280;39219;53.678;9.856;2023-04-16T00:55:57;77475.69;;;-147.77;86.36
52839;BME280;39219;53.678;9.856;2023-04-16T00:58:24;77469.63;;;-147.77;86.10
52839;BME280;39219;53.678;9.856;2023-04-16T01:00:51;77459.50;;;-147.77;86.18
52839;BME280;39219;53.678;9.856;2023-04-16T01:03:18;77451.41;;;-147.77;85.88
52839;BME280;39219;53.678;9.856;2023-04-16T01:05:45;77465.59;;;-147.77;85.97
52839;BME280;39219;53.678;9.856;2023-04-16T01:08:15;77463.56;;;-147.77;86.21
52839;BME280;39219;53.678;9.856;2023-04-16T01:10:42;77465.59;;;-147.77;86.03
52839;BME280;39219;53.678;9.856;2023-04-16T01:13:09;77465.59;;;-147.77;85.96
52839;BME280;39219;53.678;9.856;2023-04-16T01:15:35;77467.59;;;-147.77;85.75
52839;BME280;39219;53.678;9.856;2023-04-16T01:18:02;77467.59;;;-147.77;85.81
52839;BME280;39219;53.678;9.856;2023-04-16T01:20:36;77471.66;;;-147.77;85.44
52839;BME280;39219;53.678;9.856;2023-04-16T01:23:02;77465.59;;;-147.77;85.62
52839;BME280;39219;53.678;9.856;2023-04-16T01:25:29;77467.59;;;-147.77;85.50
52839;BME280;39219;53.678;9.856;2023-04-16T01:27:55;77465.59;;;-147.77;85.29
52839;BME280;39219;53.678;9.856;2023-04-16T01:30:23;77469.63;;;-147.77;85.24
52839;BME280;39219;53.678;9.856;2023-04-16T01:32:49;77473.66;;;-147.77;85.49
52839;BME280;39219;53.678;9.856;2023-04-16T01:35:16;77473.66;;;-147.77;85.40
52839;BME280;39219;53.678;9.856;2023-04-16T01:37:44;77481.75;;;-147.77;85.47
52839;BME280;39219;53.678;9.856;2023-04-16T01:40:11;77487.84;;;-147.77;85.56
52839;BME280;39219;53.678;9.856;2023-04-16T01:42:37;77495.94;;;-147.77;85.46
52839;BME280;39219;53.678;9.856;2023-04-16T01:45:05;77493.91;;;-147.77;86.17
52839;BME280;39219;53.678;9.856;2023-04-16T01:47:32;77491.88;;;-147.77;85.63
52839;BME280;39219;53.678;9.856;2023-04-16T01:49:58;77487.84;;;-147.77;86.49
52839;BME280;39219;53.678;9.856;2023-04-16T01:52:25;77487.84;;;-147.77;86.57
52839;BME280;39219;53.678;9.856;2023-04-16T01:54:52;77487.84;;;-147.77;86.48
52839;BME280;39219;53.678;9.856;2023-04-16T01:57:19;77497.94;;;-147.77;86.61
52839;BME280;39219;53.678;9.856;2023-04-16T01:59:45;77495.94;;;-147.77;86.55
52839;BME280;39219;53.678;9.856;2023-04-16T02:02:14;77504.03;;;-147.77;86.59
52839;BME280;39219;53.678;9.856;2023-04-16T02:04:42;77510.09;;;-147.77;86.67
52839;BME280;39219;53.678;9.856;2023-04-16T02:07:10;77502.00;;;-147.77;86.59
52839;BME280;39219;53.678;9.856;2023-04-16T02:09:38;77508.06;;;-147.77;86.80
52839;BME280;39219;53.678;9.856;2023-04-16T02:12:06;77508.06;;;-147.77;87.01
52839;BME280;39219;53.678;9.856;2023-04-16T02:14:35;77506.03;;;-147.77;87.18
52839;BME280;39219;53.678;9.856;2023-04-16T02:17:02;77499.97;;;-147.77;87.11
52839;BME280;39219;53.678;9.856;2023-04-16T02:19:28;77499.97;;;-147.77;86.74
52839;BME280;39219;53.678;9.856;2023-04-16T02:21:55;77502.00;;;-147.77;87.09
52839;BME280;39219;53.678;9.856;2023-04-16T02:24:21;77506.03;;;-147.77;86.97
52839;BME280;39219;53.678;9.856;2023-04-16T02:26:48;77495.94;;;-147.77;86.92
52839;BME280;39219;53.678;9.856;2023-04-16T02:29:15;77504.03;;;-147.77;86.50
52839;BME280;39219;53.678;9.856;2023-04-16T02:31:42;77506.03;;;-147.77;86.91
52839;BME280;39219;53.678;9.856;2023-04-16T02:34:08;77502.00;;;-147.77;86.78
52839;BME280;39219;53.678;9.856;2023-04-16T02:36:35;77504.03;;;-147.77;86.64
52839;BME280;39219;53.678;9.856;2023-04-16T02:39:01;77514.13;;;-147.77;86.85
52839;BME280;39219;53.678;9.856;2023-04-16T02:41:28;77520.22;;;-147.77;86.85
52839;BME280;39219;53.678;9.856;2023-04-16T02:43:54;77506.03;;;-147.77;86.75
52839;BME280;39219;53.678;9.856;2023-04-16T02:46:22;77504.03;;;-147.77;86.49
52839;BME280;39219;53.678;9.856;2023-04-16T02:48:49;77510.09;;;-147.77;86.26
52839;BME280;39219;53.678;9.856;2023-04-16T02:51:15;77518.19;;;-147.77;85.78
52839;BME280;39219;53.678;9.856;2023-04-16T02:53:42;77512.13;;;-147.77;86.20
52839;BME280;39219;53.678;9.856;2023-04-16T02:56:10;77508.06;;;-147.77;85.94
52839;BME280;39219;53.678;9.856;2023-04-16T02:58:37;77516.16;;;-147.77;86.16
52839;BME280;39219;53.678;9.856;2023-04-16T03:01:04;77522.22;;;-147.77;86.23
52839;BME280;39219;53.678;9.856;2023-04-16T03:03:31;77520.22;;;-147.77;86.10
52839;BME280;39219;53.678;9.856;2023-04-16T03:05:58;77526.28;;;-147.77;85.79
52839;BME280;39219;53.678;9.856;2023-04-16T03:08:25;77522.22;;;-147.77;86.20
52839;BME280;39219;53.678;9.856;2023-04-16T03:10:51;77528.31;;;-147.77;86.27
52839;BME280;39219;53.678;9.856;2023-04-16T03:13:18;77514.13;;;-147.77;85.89
52839;BME280;39219;53.678;9.856;2023-04-16T03:15:47;77512.13;;;-147.77;85.33
52839;BME280;39219;53.678;9.856;2023-04-16T03:18:13;77514.13;;;-147.77;85.17
52839;BME280;39219;53.678;9.856;2023-04-16T03:20:41;77512.13;;;-147.77;85.62
52839;BME280;39219;53.678;9.856;2023-04-16T03:23:08;77506.03;;;-147.77;85.23
52839;BME280;39219;53.678;9.856;2023-04-16T03:25:34;77504.03;;;-147.77;85.17
52839;BME280;39219;53.678;9.856;2023-04-16T03:28:01;77518.19;;;-147.77;84.95
52839;BME280;39219;53.678;9.856;2023-04-16T03:30:28;77518.19;;;-147.77;85.44
52839;BME280;39219;53.678;9.856;2023-04-16T03:32:54;77514.13;;;-147.77;85.47
52839;BME280;39219;53.678;9.856;2023-04-16T03:35:21;77518.19;;;-147.77;85.29
52839;BME280;39219;53.678;9.856;2023-04-16T03:37:48;77524.25;;;-147.77;84.98
52839;BME280;39219;53.678;9.856;2023-04-16T03:40:15;77512.13;;;-147.77;85.26
52839;BME280;39219;53.678;9.856;2023-04-16T03:42:42;77516.16;;;-147.77;84.61
52839;BME280;39219;53.678;9.856;2023-04-16T03:45:09;77514.13;;;-147.77;84.95
52839;BME280;39219;53.678;9.856;2023-04-16T03:47:35;77516.16;;;-147.77;84.54
52839;BME280;39219;53.678;9.856;2023-04-16T03:50:02;77512.13;;;-147.77;85.13
52839;BME280;39219;53.678;9.856;2023-04-16T03:52:29;77510.09;;;-147.77;85.20
52839;BME280;39219;53.678;9.856;2023-04-16T03:54:57;77506.03;;;-147.77;85.40
52839;BME280;39219;53.678;9.856;2023-04-16T03:57:23;77508.06;;;-147.77;85.22
52839;BME280;39219;53.678;9.856;2023-04-16T03:59:50;77510.09;;;-147.77;85.28
52839;BME280;39219;53.678;9.856;2023-04-16T04:02:16;77516.16;;;-147.77;85.63
52839;BME280;39219;53.678;9.856;2023-04-16T04:04:43;77512.13;;;-147.77;86.07
52839;BME280;39219;53.678;9.856;2023-04-16T04:07:09;77512.13;;;-147.77;86.02
52839;BME280;39219;53.678;9.856;2023-04-16T04:09:35;77512.13;;;-147.77;86.18
52839;BME280;39219;53.678;9.856;2023-04-16T04:12:03;77518.19;;;-147.77;86.36
52839;BME280;39219;53.678;9.856;2023-04-16T04:14:30;77518.19;;;-147.77;86.22
52839;BME280;39219;53.678;9.856;2023-04-16T04:16:56;77524.25;;;-147.77;86.29
52839;BME280;39219;53.678;9.856;2023-04-16T04:19:23;77532.34;;;-147.77;85.60
52839;BME280;39219;53.678;9.856;2023-04-16T04:21:49;77530.31;;;-147.77;86.24
52839;BME280;39219;53.678;9.856;2023-04-16T04:24:15;77528.31;;;-147.77;86.57
52839;BME280;39219;53.678;9.856;2023-04-16T04:26:42;77528.31;;;-147.77;86.46
52839;BME280;39219;53.678;9.856;2023-04-16T04:29:10;77530.31;;;-147.77;86.43
52839;BME280;39219;53.678;9.856;2023-04-16T04:31:36;77534.38;;;-147.77;86.43
52839;BME280;39219;53.678;9.856;2023-04-16T04:34:03;77534.38;;;-147.77;86.60
52839;BME280;39219;53.678;9.856;2023-04-16T04:36:29;77530.31;;;-147.77;86.69
52839;BME280;39219;53.678;9.856;2023-04-16T04:38:56;77524.25;;;-147.77;86.69
52839;BME280;39219;53.678;9.856;2023-04-16T04:41:23;77532.34;;;-147.77;85.81
52839;BME280;39219;53.678;9.856;2023-04-16T04:43:51;77528.31;;;-147.77;86.57
52839;BME280;39219;53.678;9.856;2023-04-16T04:46:18;77528.31;;;-147.77;86.67
52839;BME280;39219;53.678;9.856;2023-04-16T04:48:45;77534.38;;;-147.77;86.48
52839;BME280;39219;53.678;9.856;2023-04-16T04:51:11;77538.41;;;-147.77;86.84
52839;BME280;39219;53.678;9.856;2023-04-16T04:53:38;77534.38;;;-147.77;86.69
52839;BME280;39219;53.678;9.856;2023-04-16T04:56:05;77540.44;;;-147.77;86.54
52839;BME280;39219;53.678;9.856;2023-04-16T04:58:31;77518.19;;;-147.77;86.71
52839;BME280;39219;53.678;9.856;2023-04-16T05:00:58;77528.31;;;-147.77;86.24
52839;BME280;39219;53.678;9.856;2023-04-16T05:03:26;77520.22;;;-147.77;86.03
52839;BME280;39219;53.678;9.856;2023-04-16T05:05:52;77520.22;;;-147.77;85.96
52839;BME280;39219;53.678;9.856;2023-04-16T05:08:18;77528.31;;;-147.77;86.20
52839;BME280;39219;53.678;9.856;2023-04-16T05:10:45;77524.25;;;-147.77;86.48
52839;BME280;39219;53.678;9.856;2023-04-16T05:13:11;77516.16;;;-147.77;86.07
52839;BME280;39219;53.678;9.856;2023-04-16T05:15:38;77528.31;;;-147.77;85.95
52839;BME280;39219;53.678;9.856;2023-04-16T05:18:04;77530.31;;;-147.77;86.08
52839;BME280;39219;53.678;9.856;2023-04-16T05:20:33;77524.25;;;-147.77;86.23
52839;BME280;39219;53.678;9.856;2023-04-16T05:23:01;77526.28;;;-147.77;86.01
52839;BME280;39219;53.678;9.856;2023-04-16T05:25:28;77526.28;;;-147.77;85.45
52839;BME280;39219;53.678;9.856;2023-04-16T05:27:54;77520.22;;;-147.77;86.01
52839;BME280;39219;53.678;9.856;2023-04-16T05:30:21;77516.16;;;-147.77;85.47
52839;BME280;39219;53.678;9.856;2023-04-16T05:32:47;77518.19;;;-147.77;85.65
52839;BME280;39219;53.678;9.856;2023-04-16T05:35:14;77514.13;;;-147.77;85.69
52839;BME280;39219;53.678;9.856;2023-04-16T05:37:41;77512.13;;;-147.77;85.47
52839;BME280;39219;53.678;9.856;2023-04-16T05:40:08;77508.06;;;-147.77;85.44
52839;BME280;39219;53.678;9.856;2023-04-16T05:42:35;77508.06;;;-147.77;85.01
52839;BME280;39219;53.678;9.856;2023-04-16T05:45:02;77512.13;;;-147.77;84.90
52839;BME280;39219;53.678;9.856;2023-04-16T05:47:29;77514.13;;;-147.77;84.80
52839;BME280;39219;53.678;9.856;2023-04-16T05:49:55;77497.94;;;-147.77;84.74
52839;BME280;39219;53.678;9.856;2023-04-16T05:52:22;77506.03;;;-147.77;84.29
52839;BME280;39219;53.678;9.856;2023-04-16T05:54:50;77504.03;;;-147.77;83.94
52839;BME280;39219;53.678;9.856;2023-04-16T05:57:16;77504.03;;;-147.77;84.45
52839;BME280;39219;53.678;9.856;2023-04-16T05:59:43;77497.94;;;-147.77;83.87
52839;BME280;39219;53.678;9.856;2023-04-16T06:02:09;77499.97;;;-147.77;83.92
52839;BME280;39219;53.678;9.856;2023-04-16T06:04:36;77487.84;;;-147.77;83.89
52839;BME280;39219;53.678;9.856;2023-04-16T06:07:02;77487.84;;;-147.77;83.16
52839;BME280;39219;53.678;9.856;2023-04-16T06:09:29;77487.84;;;-147.77;83.37
52839;BME280;39219;53.678;9.856;2023-04-16T06:11:57;77479.75;;;-147.77;82.92
52839;BME280;39219;53.678;9.856;2023-04-16T06:14:23;77475.69;;;-147.77;82.59
52839;BME280;39219;53.678;9.856;2023-04-16T06:16:49;77479.75;;;-147.77;82.75
52839;BME280;39219;53.678;9.856;2023-04-16T06:19:16;77479.75;;;-147.77;82.70
52839;BME280;39219;53.678;9.856;2023-04-16T06:21:42;77473.66;;;-147.77;81.84
52839;BME280;39219;53.678;9.856;2023-04-16T06:24:09;77467.59;;;-147.77;82.10
52839;BME280;39219;53.678;9.856;2023-04-16T06:26:37;77463.56;;;-147.77;82.39
52839;BME280;39219;53.678;9.856;2023-04-16T06:29:05;77461.53;;;-147.77;81.09
52839;BME280;39219;53.678;9.856;2023-04-16T06:31:31;77461.53;;;-147.77;81.92
52839;BME280;39219;53.678;9.856;2023-04-16T06:33:58;77469.63;;;-147.77;81.22
52839;BME280;39219;53.678;9.856;2023-04-16T06:36:24;77449.41;;;-147.77;81.28
52839;BME280;39219;53.678;9.856;2023-04-16T06:38:51;77451.41;;;-147.77;80.93
52839;BME280;39219;53.678;9.856;2023-04-16T06:41:18;77451.41;;;-147.77;81.25
52839;BME280;39219;53.678;9.856;2023-04-16T06:43:45;77451.41;;;-147.77;80.91
52839;BME280;39219;53.678;9.856;2023-04-16T06:46:13;77453.44;;;-147.77;80.44
52839;BME280;39219;53.678;9.856;2023-04-16T06:48:39;77451.41;;;-147.77;80.46
52839;BME280;39219;53.678;9.856;2023-04-16T06:51:06;77461.53;;;-147.77;80.55
52839;BME280;39219;53.678;9.856;2023-04-16T06:53:32;77459.50;;;-147.77;80.65
52839;BME280;39219;53.678;9.856;2023-04-16T06:55:58;77459.50;;;-147.77;80.48
52839;BME280;39219;53.678;9.856;2023-04-16T06:58:25;77471.66;;;-147.77;80.16
52839;BME280;39219;53.678;9.856;2023-04-16T07:00:51;77471.66;;;-147.77;80.25
52839;BME280;39219;53.678;9.856;2023-04-16T07:03:19;77467.59;;;-147.77;80.66
52839;BME280;39219;53.678;9.856;2023-04-16T07:05:46;77477.72;;;-147.77;79.63
52839;BME280;39219;53.678;9.856;2023-04-16T07:08:12;77461.53;;;-147.77;80.13
52839;BME280;39219;53.678;9.856;2023-04-16T07:10:39;77449.41;;;-147.77;79.96
52839;BME280;39219;53.678;9.856;2023-04-16T07:13:05;77443.31;;;-147.77;79.36
52839;BME280;39219;53.678;9.856;2023-04-16T07:15:32;77423.09;;;-147.77;79.38
52839;BME280;39219;53.678;9.856;2023-04-16T07:17:58;77423.09;;;-147.77;78.71
52839;BME280;39219;53.678;9.856;2023-04-16T07:20:26;77402.84;;;-147.77;78.59
52839;BME280;39219;53.678;9.856;2023-04-16T07:22:52;77388.69;;;-147.77;78.35
52839;BME280;39219;53.678;9.856;2023-04-16T07:25:19;77372.50;;;-147.77;77.60
52839;BME280;39219;53.678;9.856;2023-04-16T07:27:45;77370.47;;;-147.77;76.79
52839;BME280;39219;53.678;9.856;2023-04-16T07:30:12;77378.56;;;-147.77;76.72
52839;BME280;39219;53.678;9.856;2023-04-16T07:32:38;77382.63;;;-147.77;76.42
52839;BME280;39219;53.678;9.856;2023-04-16T07:35:06;77370.47;;;-147.77;76.38
52839;BME280;39219;53.678;9.856;2023-04-16T07:37:33;77360.38;;;-147.77;75.87
52839;BME280;39219;53.678;9.856;2023-04-16T07:40:00;77372.50;;;-147.77;75.38
52839;BME280;39219;53.678;9.856;2023-04-16T07:42:26;77380.59;;;-147.77;75.52
52839;BME280;39219;53.678;9.856;2023-04-16T07:44:54;77354.28;;;-147.77;75.54
52839;BME280;39219;53.678;9.856;2023-04-16T07:47:20;77334.06;;;-147.77;75.37
52839;BME280;39219;53.678;9.856;2023-04-16T07:49:47;77303.72;;;-147.77;74.42
52839;BME280;39219;53.678;9.856;2023-04-16T07:52:13;77303.72;;;-147.77;72.37
52839;BME280;39219;53.678;9.856;2023-04-16T07:54:41;77325.97;;;-147.77;71.98
52839;BME280;39219;53.678;9.856;2023-04-16T07:57:08;77313.81;;;-147.77;73.13
52839;BME280;39219;53.678;9.856;2023-04-16T07:59:35;77330.00;;;-147.77;71.88
52839;BME280;39219;53.678;9.856;2023-04-16T08:02:02;77317.88;;;-147.77;72.69
52839;BME280;39219;53.678;9.856;2023-04-16T08:04:30;77328.00;;;-147.77;72.46
52839;BME280;39219;53.678;9.856;2023-04-16T08:06:56;77342.16;;;-147.77;72.35
52839;BME280;39219;53.678;9.856;2023-04-16T08:09:25;77348.22;;;-147.77;72.18
52839;BME280;39219;53.678;9.856;2023-04-16T08:11:54;77348.22;;;-147.77;73.13
52839;BME280;39219;53.678;9.856;2023-04-16T08:14:20;77354.28;;;-147.77;73.08
52839;BME280;39219;53.678;9.856;2023-04-16T08:16:47;77374.53;;;-147.77;72.82
52839;BME280;39219;53.678;9.856;2023-04-16T08:19:13;77394.75;;;-147.77;72.71
52839;BME280;39219;53.678;9.856;2023-04-16T08:21:40;77402.84;;;-147.77;73.09
52839;BME280;39219;53.678;9.856;2023-04-16T08:24:06;77410.94;;;-147.77;73.63
52839;BME280;39219;53.678;9.856;2023-04-16T08:26:33;77410.94;;;-147.77;74.47
52839;BME280;39219;53.678;9.856;2023-04-16T08:29:01;77421.06;;;-147.77;74.50
52839;BME280;39219;53.678;9.856;2023-04-16T08:31:28;77439.28;;;-147.77;74.98
52839;BME280;39219;53.678;9.856;2023-04-16T08:33:54;77431.19;;;-147.77;75.21
52839;BME280;39219;53.678;9.856;2023-04-16T08:36:21;77443.31;;;-147.77;75.26
52839;BME280;39219;53.678;9.856;2023-04-16T08:38:47;77461.53;;;-147.77;75.46
52839;BME280;39219;53.678;9.856;2023-04-16T08:41:14;77453.44;;;-147.77;76.45
52839;BME280;39219;53.678;9.856;2023-04-16T08:43:44;77473.66;;;-147.77;76.00
52839;BME280;39219;53.678;9.856;2023-04-16T08:46:12;77469.63;;;-147.77;76.64
52839;BME280;39219;53.678;9.856;2023-04-16T08:48:40;77463.56;;;-147.77;76.69
52839;BME280;39219;53.678;9.856;2023-04-16T08:51:09;77447.38;;;-147.77;76.47
52839;BME280;39219;53.678;9.856;2023-04-16T08:53:42;77443.31;;;-147.77;75.90
52839;BME280;39219;53.678;9.856;2023-04-16T08:56:14;77435.22;;;-147.77;75.71
52839;BME280;39219;53.678;9.856;2023-04-16T08:58:42;77425.13;;;-147.77;75.56
52839;BME280;39219;53.678;9.856;2023-04-16T09:01:09;77423.09;;;-147.77;75.35
52839;BME280;39219;53.678;9.856;2023-04-16T09:03:37;77402.84;;;-147.77;75.33
52839;BME280;39219;53.678;9.856;2023-04-16T09:06:05;77394.75;;;-147.77;74.70
52839;BME280;39219;53.678;9.856;2023-04-16T09:08:33;77390.72;;;-147.77;74.40
52839;BME280;39219;53.678;9.856;2023-04-16T09:11:00;77384.66;;;-147.77;74.21
52839;BME280;39219;53.678;9.856;2023-04-16T09:13:27;77368.47;;;-147.77;73.77
52839;BME280;39219;53.678;9.856;2023-04-16T09:15:53;77334.06;;;-147.77;72.30
52839;BME280;39219;53.678;9.856;2023-04-16T09:18:21;77293.59;;;-147.77;72.43
52839;BME280;39219;53.678;9.856;2023-04-16T09:20:50;77291.56;;;-147.77;70.62
52839;BME280;39219;53.678;9.856;2023-04-16T09:23:17;77277.41;;;-147.77;70.33
52839;BME280;39219;53.678;9.856;2023-04-16T09:25:43;77287.53;;;-147.77;70.15
52839;BME280;39219;53.678;9.856;2023-04-16T09:28:09;77243.00;;;-147.77;70.49
52839;BME280;39219;53.678;9.856;2023-04-16T09:30:36;77226.81;;;-147.77;68.10
52839;BME280;39219;53.678;9.856;2023-04-16T09:33:13;77269.31;;;-147.77;68.41
52839;BME280;39219;53.678;9.856;2023-04-16T09:35:45;77261.22;;;-147.77;68.89
52839;BME280;39219;53.678;9.856;2023-04-16T09:38:13;77255.16;;;-147.77;69.60
52839;BME280;39219;53.678;9.856;2023-04-16T09:40:40;77216.72;;;-147.77;67.60
52839;BME280;39219;53.678;9.856;2023-04-16T09:43:09;77228.84;;;-147.77;67.27
52839;BME280;39219;53.678;9.856;2023-04-16T09:45:47;77259.19;;;-147.77;67.82
52839;BME280;39219;53.678;9.856;2023-04-16T09:48:14;77293.59;;;-147.77;68.25
52839;BME280;39219;53.678;9.856;2023-04-16T09:50:45;77311.81;;;-147.77;68.39
52839;BME280;39219;53.678;9.856;2023-04-16T09:53:22;77261.22;;;-147.77;69.55
52839;BME280;39219;53.678;9.856;2023-04-16T09:55:49;77255.16;;;-147.77;68.65
52839;BME280;39219;53.678;9.856;2023-04-16T09:58:17;77238.97;;;-147.77;68.27
52839;BME280;39219;53.678;9.856;2023-04-16T10:00:43;77249.09;;;-147.77;68.04
52839;BME280;39219;53.678;9.856;2023-04-16T10:03:10;77251.09;;;-147.77;67.62
52839;BME280;39219;53.678;9.856;2023-04-16T10:05:37;77245.03;;;-147.77;67.93
52839;BME280;39219;53.678;9.856;2023-04-16T10:08:10;77273.38;;;-147.77;68.22
52839;BME280;39219;53.678;9.856;2023-04-16T10:10:38;77303.72;;;-147.77;68.16
52839;BME280;39219;53.678;9.856;2023-04-16T10:13:05;77313.81;;;-147.77;69.59
52839;BME280;39219;53.678;9.856;2023-04-16T10:15:32;77321.91;;;-147.77;69.66
52839;BME280;39219;53.678;9.856;2023-04-16T10:17:59;77330.00;;;-147.77;70.26
52839;BME280;39219;53.678;9.856;2023-04-16T10:20:25;77340.13;;;-147.77;69.30
52839;BME280;39219;53.678;9.856;2023-04-16T10:22:53;77334.06;;;-147.77;69.80
52839;BME280;39219;53.678;9.856;2023-04-16T10:25:20;77325.97;;;-147.77;70.13
52839;BME280;39219;53.678;9.856;2023-04-16T10:27:48;77336.09;;;-147.77;69.94
52839;BME280;39219;53.678;9.856;2023-04-16T10:30:15;77362.38;;;-147.77;68.90
52839;BME280;39219;53.678;9.856;2023-04-16T10:32:44;77364.41;;;-147.77;70.64
52839;BME280;39219;53.678;9.856;2023-04-16T10:35:14;77370.47;;;-147.77;70.48
52839;BME280;39219;53.678;9.856;2023-04-16T10:37:41;77360.38;;;-147.77;70.69
52839;BME280;39219;53.678;9.856;2023-04-16T10:40:21;77356.31;;;-147.77;70.43
52839;BME280;39219;53.678;9.856;2023-04-16T10:42:54;77364.41;;;-147.77;71.00
52839;BME280;39219;53.678;9.856;2023-04-16T10:45:25;77352.28;;;-147.77;70.45
52839;BME280;39219;53.678;9.856;2023-04-16T10:47:54;77366.44;;;-147.77;70.60
52839;BME280;39219;53.678;9.856;2023-04-16T10:50:21;77360.38;;;-147.77;70.47
52839;BME280;39219;53.678;9.856;2023-04-16T10:52:47;77352.28;;;-147.77;70.49
52839;BME280;39219;53.678;9.856;2023-04-16T10:55:15;77328.00;;;-147.77;70.47
52839;BME280;39219;53.678;9.856;2023-04-16T10:57:42;77334.06;;;-147.77;70.26
52839;BME280;39219;53.678;9.856;2023-04-16T11:00:21;77321.91;;;-147.77;70.34
52839;BME280;39219;53.678;9.856;2023-04-16T11:02:52;77317.88;;;-147.77;70.60
52839;BME280;39219;53.678;9.856;2023-04-16T11:05:21;77344.19;;;-147.77;68.68
52839;BME280;39219;53.678;9.856;2023-04-16T11:07:47;77360.38;;;-147.77;69.92
52839;BME280;39219;53.678;9.856;2023-04-16T11:10:14;77366.44;;;-147.77;70.10
52839;BME280;39219;53.678;9.856;2023-04-16T11:12:41;77366.44;;;-147.77;70.24
52839;BME280;39219;53.678;9.856;2023-04-16T11:15:10;77350.25;;;-147.77;71.20
52839;BME280;39219;53.678;9.856;2023-04-16T11:17:39;77358.34;;;-147.77;70.55
52839;BME280;39219;53.678;9.856;2023-04-16T11:20:09;77368.47;;;-147.77;71.12
52839;BME280;39219;53.678;9.856;2023-04-16T11:22:35;77374.53;;;-147.77;70.42
52839;BME280;39219;53.678;9.856;2023-04-16T11:25:02;77376.56;;;-147.77;70.96
52839;BME280;39219;53.678;9.856;2023-04-16T11:27:29;77378.56;;;-147.77;70.76
52839;BME280;39219;53.678;9.856;2023-04-16T11:29:57;77358.34;;;-147.77;70.76
52839;BME280;39219;53.678;9.856;2023-04-16T11:32:23;77352.28;;;-147.77;70.43
52839;BME280;39219;53.678;9.856;2023-04-16T11:34:51;77358.34;;;-147.77;69.42
52839;BME280;39219;53.678;9.856;2023-04-16T11:37:19;77334.06;;;-147.77;70.74
52839;BME280;39219;53.678;9.856;2023-04-16T11:39:50;77342.16;;;-147.77;70.16
52839;BME280;39219;53.678;9.856;2023-04-16T11:42:20;77342.16;;;-147.77;70.55
52839;BME280;39219;53.678;9.856;2023-04-16T11:44:51;77352.28;;;-147.77;70.00
52839;BME280;39219;53.678;9.856;2023-04-16T11:47:18;77342.16;;;-147.77;71.05
52839;BME280;39219;53.678;9.856;2023-04-16T11:49:45;77332.03;;;-147.77;70.64
52839;BME280;39219;53.678;9.856;2023-04-16T11:52:14;77356.31;;;-147.77;70.64
52839;BME280;39219;53.678;9.856;2023-04-16T11:54:50;77350.25;;;-147.77;70.83
52839;BME280;39219;53.678;9.856;2023-04-16T11:57:23;77350.25;;;-147.77;70.95
52839;BME280;39219;53.678;9.856;2023-04-16T11:59:49;77354.28;;;-147.77;70.81
52839;BME280;39219;53.678;9.856;2023-04-16T12:02:16;77356.31;;;-147.77;70.90
52839;BME280;39219;53.678;9.856;2023-04-16T12:04:42;77360.38;;;-147.77;70.66
52839;BME280;39219;53.678;9.856;2023-04-16T12:07:10;77372.50;;;-147.77;70.97
52839;BME280;39219;53.678;9.856;2023-04-16T12:09:40;77362.38;;;-147.77;70.65
52839;BME280;39219;53.678;9.856;2023-04-16T12:12:25;77370.47;;;-147.77;70.91
52839;BME280;39219;53.678;9.856;2023-04-16T12:14:52;77382.63;;;-147.77;70.95
52839;BME280;39219;53.678;9.856;2023-04-16T12:17:18;77390.72;;;-147.77;71.07
52839;BME280;39219;53.678;9.856;2023-04-16T12:19:49;77370.47;;;-147.77;71.51
52839;BME280;39219;53.678;9.856;2023-04-16T12:22:16;77344.19;;;-147.77;71.42
52839;BME280;39219;53.678;9.856;2023-04-16T12:24:44;77352.28;;;-147.77;70.53
52839;BME280;39219;53.678;9.856;2023-04-16T12:27:10;77372.50;;;-147.77;71.17
52839;BME280;39219;53.678;9.856;2023-04-16T12:29:37;77376.56;;;-147.77;71.73
52839;BME280;39219;53.678;9.856;2023-04-16T12:32:03;77376.56;;;-147.77;71.54
52839;BME280;39219;53.678;9.856;2023-04-16T12:34:30;77370.47;;;-147.77;71.64
52839;BME280;39219;53.678;9.856;2023-04-16T12:37:05;77374.53;;;-147.77;71.18
52839;BME280;39219;53.678;9.856;2023-04-16T12:39:32;77378.56;;;-147.77;71.37
52839;BME280;39219;53.678;9.856;2023-04-16T12:41:59;77382.63;;;-147.77;71.54